Time;durP1;ratioP1;P1;durP2;ratioP2;P2;SDS_P1;SDS_P2;PMS_P1;PMS_P2;Temp;Humidity;BMP_temperature;BMP_pressure;BME280_temperature;BME280_humidity;BME280_pressure;Samples;Min_cycle;Max_cycle;Signal;HPM_P1;HPM_P2
2022/04/04 00:00:53;;;;;;;8.57;4.50;;;;;;;;;;6313512;28;20052;-75
2022/04/04 00:03:56;;;;;;;7.88;4.25;;;;;;;;;;6313773;28;20428;-75
2022/04/04 00:06:59;;;;;;;10.43;5.03;;;;;;;;;;6315283;28;20105;-75
2022/04/04 00:10:02;;;;;;;7.35;4.47;;;;;;;;;;6315281;28;20044;-74
2022/04/04 00:13:06;;;;;;;7.30;4.60;;;;;;;;;;6315042;28;20089;-75
2022/04/04 00:16:10;;;;;;;7.30;4.80;;;;;;;;;;6317080;28;20052;-76
2022/04/04 00:19:14;;;;;;;8.70;4.85;;;;;;;;;;6316067;28;20036;-76
2022/04/04 00:22:17;;;;;;;10.05;4.80;;;;;;;;;;6314880;28;20127;-76
2022/04/04 00:25:20;;;;;;;7.43;4.65;;;;;;;;;;6316164;28;20060;-76
2022/04/04 00:28:23;;;;;;;8.18;4.80;;;;;;;;;;6316512;28;20040;-76
2022/04/04 00:31:28;;;;;;;8.60;4.60;;;;;;;;;;6313948;28;20044;-75
2022/04/04 00:34:30;;;;;;;8.50;4.82;;;;;;;;;;6315556;28;20047;-76
2022/04/04 00:37:34;;;;;;;12.77;4.93;;;;;;;;;;6315837;28;20062;-75
2022/04/04 00:40:40;;;;;;;9.75;4.78;;;;;;;;;;6315196;28;20051;-75
2022/04/04 00:43:43;;;;;;;9.52;4.47;;;;;;;;;;6314467;28;20089;-75
2022/04/04 00:46:47;;;;;;;7.07;4.57;;;;;;;;;;6317141;28;20490;-76
2022/04/04 00:49:50;;;;;;;12.90;6.18;;;;;;;;;;6317199;28;20093;-75
2022/04/04 00:52:53;;;;;;;8.88;4.65;;;;;;;;;;6314370;28;20118;-76
2022/04/04 00:55:59;;;;;;;11.10;4.60;;;;;;;;;;6317026;28;20044;-74
2022/04/04 00:59:03;;;;;;;9.48;4.40;;;;;;;;;;6317257;28;20122;-73
2022/04/04 01:02:08;;;;;;;7.82;4.68;;;;;;;;;;6315096;28;20044;-75
2022/04/04 01:05:11;;;;;;;16.45;7.78;;;;;;;;;;6315841;28;20055;-74
2022/04/04 01:08:16;;;;;;;9.73;5.45;;;;;;;;;;6317333;28;20490;-75
2022/04/04 01:11:18;;;;;;;8.55;5.05;;;;;;;;;;6315522;28;20043;-74
2022/04/04 01:14:24;;;;;;;7.80;4.68;;;;;;;;;;6314288;28;20047;-74
2022/04/04 01:17:29;;;;;;;10.85;5.13;;;;;;;;;;6316759;28;20133;-73
2022/04/04 01:20:32;;;;;;;9.75;5.45;;;;;;;;;;6317074;28;20051;-75
2022/04/04 01:23:40;;;;;;;8.20;4.60;;;;;;;;;;6319065;28;20399;-74
2022/04/04 01:26:47;;;;;;;10.82;4.93;;;;;;;;;;6320122;28;20475;-74
2022/04/04 01:29:50;;;;;;;8.35;4.97;;;;;;;;;;6319265;28;20040;-76
2022/04/04 01:32:53;;;;;;;9.80;4.90;;;;;;;;;;6319731;28;20040;-75
2022/04/04 01:35:57;;;;;;;10.20;5.72;;;;;;;;;;6318209;28;20040;-74
2022/04/04 01:39:01;;;;;;;11.65;5.20;;;;;;;;;;6318761;28;20670;-73
2022/04/04 01:42:06;;;;;;;8.85;5.10;;;;;;;;;;6319462;28;20559;-74
2022/04/04 01:45:11;;;;;;;11.50;5.40;;;;;;;;;;6320014;28;20101;-74
2022/04/04 01:48:14;;;;;;;8.75;4.93;;;;;;;;;;6315973;28;21065;-73
2022/04/04 01:51:19;;;;;;;10.88;5.47;;;;;;;;;;6317798;28;20050;-75
2022/04/04 01:54:22;;;;;;;11.70;5.63;;;;;;;;;;6319751;28;20047;-74
2022/04/04 01:57:26;;;;;;;7.28;4.63;;;;;;;;;;6316798;28;20066;-74
2022/04/04 02:00:30;;;;;;;8.05;4.72;;;;;;;;;;6317819;28;20482;-74
2022/04/04 02:03:33;;;;;;;9.05;4.95;;;;;;;;;;6318860;28;20044;-75
2022/04/04 02:06:36;;;;;;;9.20;5.15;;;;;;;;;;6318135;28;20418;-75
2022/04/04 02:09:39;;;;;;;9.07;5.20;;;;;;;;;;6318773;28;20426;-75
2022/04/04 02:12:43;;;;;;;9.07;4.95;;;;;;;;;;6317937;28;20512;-75
2022/04/04 02:15:46;;;;;;;10.10;5.53;;;;;;;;;;6317902;28;20055;-75
2022/04/04 02:18:49;;;;;;;11.75;5.43;;;;;;;;;;6317286;28;20090;-75
2022/04/04 02:21:52;;;;;;;9.93;5.15;;;;;;;;;;6318922;28;20051;-75
2022/04/04 02:24:55;;;;;;;8.88;5.30;;;;;;;;;;6319865;28;20052;-75
2022/04/04 02:28:01;;;;;;;11.68;5.43;;;;;;;;;;6315476;28;20040;-75
2022/04/04 02:31:04;;;;;;;11.20;4.97;;;;;;;;;;6317433;28;20050;-75
2022/04/04 02:34:07;;;;;;;8.43;4.85;;;;;;;;;;6320096;28;20040;-74
2022/04/04 02:37:10;;;;;;;12.10;5.40;;;;;;;;;;6316936;28;20043;-75
2022/04/04 02:40:16;;;;;;;12.57;5.38;;;;;;;;;;6316153;28;20046;-75
2022/04/04 02:43:20;;;;;;;12.05;5.20;;;;;;;;;;6317709;28;20046;-75
2022/04/04 02:46:23;;;;;;;10.75;5.65;;;;;;;;;;6317698;28;20056;-75
2022/04/04 02:49:29;;;;;;;10.30;5.72;;;;;;;;;;6318247;28;20103;-75
2022/04/04 02:52:33;;;;;;;9.55;5.32;;;;;;;;;;6318303;28;20089;-75
2022/04/04 02:58:58;;;;;;;9.60;4.88;;;;;;;;;;6317902;28;20051;-75
2022/04/04 03:02:04;;;;;;;13.90;5.90;;;;;;;;;;6316913;28;20040;-75
2022/04/04 03:05:08;;;;;;;11.00;5.80;;;;;;;;;;6319489;28;20047;-76
2022/04/04 03:08:11;;;;;;;12.93;5.00;;;;;;;;;;6318442;28;20048;-75
2022/04/04 03:11:15;;;;;;;12.20;5.38;;;;;;;;;;6317740;28;20051;-75
2022/04/04 03:14:19;;;;;;;10.80;5.13;;;;;;;;;;6317725;28;20188;-75
2022/04/04 03:17:22;;;;;;;9.73;5.18;;;;;;;;;;6319537;28;20427;-76
2022/04/04 03:20:26;;;;;;;10.60;5.40;;;;;;;;;;6318139;28;20045;-75
2022/04/04 03:23:29;;;;;;;13.40;5.55;;;;;;;;;;6316606;28;20044;-74
2022/04/04 03:26:32;;;;;;;9.68;5.50;;;;;;;;;;6318787;28;20040;-76
2022/04/04 03:29:36;;;;;;;11.25;5.50;;;;;;;;;;6318704;28;20051;-75
2022/04/04 03:32:41;;;;;;;13.20;5.45;;;;;;;;;;6317109;28;20059;-74
2022/04/04 03:35:45;;;;;;;10.65;6.22;;;;;;;;;;6318377;28;20040;-74
2022/04/04 03:38:47;;;;;;;10.15;6.00;;;;;;;;;;6317483;28;20056;-74
2022/04/04 03:41:53;;;;;;;12.30;5.80;;;;;;;;;;6316102;28;20044;-74
2022/04/04 03:44:57;;;;;;;13.52;5.95;;;;;;;;;;6316077;28;20051;-74
2022/04/04 03:48:02;;;;;;;11.02;5.70;;;;;;;;;;6318539;28;20059;-74
2022/04/04 03:51:09;;;;;;;10.82;5.65;;;;;;;;;;6317069;28;20406;-74
2022/04/04 03:54:15;;;;;;;30.27;12.63;;;;;;;;;;6316767;28;20048;-74
2022/04/04 03:57:18;;;;;;;27.95;13.10;;;;;;;;;;6318220;28;20044;-74
2022/04/04 04:00:23;;;;;;;26.05;13.13;;;;;;;;;;6318433;28;20055;-74
2022/04/04 04:03:25;;;;;;;23.42;13.00;;;;;;;;;;6313277;28;20039;-73
2022/04/04 04:06:30;;;;;;;16.90;9.10;;;;;;;;;;6315159;28;20118;-74
2022/04/04 04:09:33;;;;;;;11.43;6.80;;;;;;;;;;6316756;28;20054;-76
2022/04/04 04:12:36;;;;;;;11.25;6.22;;;;;;;;;;6314264;28;20075;-75
2022/04/04 04:15:43;;;;;;;12.07;6.57;;;;;;;;;;6312669;28;20044;-75
2022/04/04 04:18:46;;;;;;;10.75;6.15;;;;;;;;;;6316134;28;20748;-73
2022/04/04 04:21:49;;;;;;;10.30;6.15;;;;;;;;;;6315977;28;20043;-73
2022/04/04 04:24:52;;;;;;;10.52;6.13;;;;;;;;;;6314357;28;20036;-74
2022/04/04 04:27:55;;;;;;;13.23;5.57;;;;;;;;;;6315027;28;20048;-73
2022/04/04 04:31:02;;;;;;;9.40;5.35;;;;;;;;;;6316435;28;20044;-74
2022/04/04 04:34:05;;;;;;;11.32;5.88;;;;;;;;;;6315092;28;20040;-74
2022/04/04 04:37:08;;;;;;;10.52;5.82;;;;;;;;;;6312901;28;20509;-76
2022/04/04 04:40:12;;;;;;;9.95;6.03;;;;;;;;;;6313234;28;20496;-75
2022/04/04 04:43:16;;;;;;;13.20;6.05;;;;;;;;;;6311640;28;20075;-75
2022/04/04 04:46:20;;;;;;;11.25;5.30;;;;;;;;;;6312124;28;20482;-75
2022/04/04 04:49:26;;;;;;;10.88;5.60;;;;;;;;;;6313744;28;20110;-75
2022/04/04 04:52:29;;;;;;;11.75;6.35;;;;;;;;;;6316154;28;20112;-74
2022/04/04 04:55:32;;;;;;;9.27;5.55;;;;;;;;;;6314757;28;20505;-74
2022/04/04 04:58:35;;;;;;;12.63;5.60;;;;;;;;;;6319652;28;20051;-75
2022/04/04 05:01:39;;;;;;;9.88;5.35;;;;;;;;;;6322412;28;20071;-74
2022/04/04 05:04:42;;;;;;;11.93;5.95;;;;;;;;;;6321051;28;20056;-74
2022/04/04 05:07:45;;;;;;;9.18;5.05;;;;;;;;;;6320711;28;20036;-74
2022/04/04 05:10:48;;;;;;;9.73;5.10;;;;;;;;;;6320950;28;20051;-75
2022/04/04 05:13:51;;;;;;;12.30;5.05;;;;;;;;;;6320795;28;20047;-75
2022/04/04 05:16:55;;;;;;;10.10;5.07;;;;;;;;;;6319054;28;20051;-75
2022/04/04 05:19:58;;;;;;;10.05;5.57;;;;;;;;;;6321495;28;20456;-75
2022/04/04 05:23:01;;;;;;;10.88;5.55;;;;;;;;;;6321849;28;20147;-75
2022/04/04 05:26:05;;;;;;;9.57;5.13;;;;;;;;;;6321466;28;20406;-75
2022/04/04 05:29:07;;;;;;;7.38;4.63;;;;;;;;;;6320241;28;20149;-75
2022/04/04 05:32:12;;;;;;;11.10;5.10;;;;;;;;;;6320386;28;20394;-74
2022/04/04 05:35:15;;;;;;;8.93;5.32;;;;;;;;;;6320129;28;20048;-75
2022/04/04 05:38:18;;;;;;;9.65;5.60;;;;;;;;;;6318468;28;20379;-75
2022/04/04 05:41:22;;;;;;;9.63;4.85;;;;;;;;;;6320076;28;20050;-75
2022/04/04 05:44:28;;;;;;;10.25;5.25;;;;;;;;;;6321505;28;20052;-75
2022/04/04 05:47:33;;;;;;;9.45;5.35;;;;;;;;;;6320109;28;20073;-75
2022/04/04 05:50:36;;;;;;;12.23;4.97;;;;;;;;;;6318841;28;20059;-74
2022/04/04 05:53:38;;;;;;;9.55;4.57;;;;;;;;;;6320876;28;20054;-76
2022/04/04 05:56:44;;;;;;;12.23;5.20;;;;;;;;;;6319571;28;20049;-74
2022/04/04 05:59:47;;;;;;;10.30;4.60;;;;;;;;;;6319145;28;20166;-76
2022/04/04 06:02:51;;;;;;;11.20;5.38;;;;;;;;;;6317892;28;20055;-76
2022/04/04 06:05:57;;;;;;;10.75;5.20;;;;;;;;;;6318946;28;20040;-74
2022/04/04 06:09:00;;;;;;;9.88;4.78;;;;;;;;;;6316303;28;20040;-75
2022/04/04 06:12:03;;;;;;;15.25;5.43;;;;;;;;;;6319094;28;20044;-75
2022/04/04 06:15:06;;;;;;;9.40;4.85;;;;;;;;;;6316696;28;20051;-75
2022/04/04 06:18:12;;;;;;;12.02;4.80;;;;;;;;;;6320143;28;20059;-76
2022/04/04 06:21:17;;;;;;;7.85;4.50;;;;;;;;;;6316445;28;20040;-74
2022/04/04 06:24:20;;;;;;;7.07;4.05;;;;;;;;;;6317894;28;20517;-75
2022/04/04 06:27:23;;;;;;;8.18;4.05;;;;;;;;;;6318968;28;20596;-74
2022/04/04 06:30:26;;;;;;;6.07;4.30;;;;;;;;;;6316984;28;20406;-74
2022/04/04 06:33:34;;;;;;;8.00;4.25;;;;;;;;;;6316835;28;20470;-74
2022/04/04 06:36:38;;;;;;;10.63;4.43;;;;;;;;;;6321006;28;20119;-75
2022/04/04 06:39:41;;;;;;;8.40;4.47;;;;;;;;;;6317397;28;20117;-76
2022/04/04 06:42:44;;;;;;;8.45;4.53;;;;;;;;;;6315782;28;20051;-73
2022/04/04 06:45:47;;;;;;;8.80;4.55;;;;;;;;;;6319720;28;20117;-74
2022/04/04 06:48:52;;;;;;;10.05;4.63;;;;;;;;;;6319628;28;20405;-74
2022/04/04 06:51:55;;;;;;;9.57;4.65;;;;;;;;;;6316626;28;20048;-74
2022/04/04 06:54:58;;;;;;;8.20;4.10;;;;;;;;;;6319501;28;20129;-74
2022/04/04 06:58:01;;;;;;;8.35;3.67;;;;;;;;;;6319787;28;20044;-74
2022/04/04 07:01:04;;;;;;;8.35;3.80;;;;;;;;;;6318411;28;20067;-74
2022/04/04 07:04:09;;;;;;;4.60;3.45;;;;;;;;;;6318402;28;20178;-74
2022/04/04 07:07:17;;;;;;;5.88;3.75;;;;;;;;;;6319007;28;20048;-74
2022/04/04 07:10:21;;;;;;;6.65;3.42;;;;;;;;;;6319222;28;20478;-74
2022/04/04 07:13:24;;;;;;;4.60;3.35;;;;;;;;;;6317300;28;20040;-74
2022/04/04 07:16:27;;;;;;;6.07;3.17;;;;;;;;;;6317509;28;20525;-74
2022/04/04 07:19:33;;;;;;;7.18;3.60;;;;;;;;;;6316823;28;20040;-74
2022/04/04 07:22:36;;;;;;;6.30;3.67;;;;;;;;;;6318396;28;20048;-74
2022/04/04 07:25:41;;;;;;;3.35;2.78;;;;;;;;;;6318141;28;20052;-74
2022/04/04 07:28:45;;;;;;;4.68;3.15;;;;;;;;;;6318810;28;20434;-74
2022/04/04 07:31:48;;;;;;;6.15;3.10;;;;;;;;;;6317546;28;20051;-74
2022/04/04 07:34:53;;;;;;;5.28;3.13;;;;;;;;;;6317060;28;20040;-75
2022/04/04 07:37:58;;;;;;;7.35;2.85;;;;;;;;;;6318772;28;20040;-74
2022/04/04 07:41:01;;;;;;;5.30;3.20;;;;;;;;;;6318796;28;20044;-74
2022/04/04 07:44:07;;;;;;;4.93;2.72;;;;;;;;;;6315972;28;20052;-74
2022/04/04 07:47:10;;;;;;;5.18;3.20;;;;;;;;;;6317855;28;20542;-76
2022/04/04 07:50:15;;;;;;;5.20;2.95;;;;;;;;;;6317095;28;20051;-73
2022/04/04 07:53:18;;;;;;;;;;;;;;;;;;6318775;28;20056;-75
2022/04/04 07:56:24;;;;;;;4.95;3.85;;;;;;;;;;6315267;28;20255;-75
2022/04/04 07:59:27;;;;;;;4.47;3.28;;;;;;;;;;6316655;28;20048;-76
2022/04/04 08:02:32;;;;;;;6.33;4.03;;;;;;;;;;6317777;28;20036;-75
2022/04/04 08:05:37;;;;;;;7.53;3.13;;;;;;;;;;6314898;28;20478;-75
2022/04/04 08:08:40;;;;;;;4.57;3.00;;;;;;;;;;6316965;28;20085;-75
2022/04/04 08:11:43;;;;;;;7.20;4.35;;;;;;;;;;6317065;28;20040;-75
2022/04/04 08:14:49;;;;;;;6.55;3.55;;;;;;;;;;6316046;28;20701;-75
2022/04/04 08:17:52;;;;;;;7.40;3.53;;;;;;;;;;6314846;28;20432;-75
2022/04/04 08:20:57;;;;;;;8.15;3.90;;;;;;;;;;6315544;28;20177;-75
2022/04/04 08:24:06;;;;;;;6.05;3.45;;;;;;;;;;6316338;28;20048;-76
2022/04/04 08:27:12;;;;;;;5.10;3.42;;;;;;;;;;6313928;28;20048;-75
2022/04/04 08:30:17;;;;;;;7.33;3.20;;;;;;;;;;6315063;28;20055;-75
2022/04/04 08:33:20;;;;;;;5.15;3.20;;;;;;;;;;6314157;28;20127;-75
2022/04/04 08:36:24;;;;;;;5.72;3.55;;;;;;;;;;6315508;28;20539;-75
2022/04/04 08:39:28;;;;;;;5.55;3.38;;;;;;;;;;6314654;28;20102;-75
2022/04/04 08:42:35;;;;;;;7.35;3.72;;;;;;;;;;6316635;28;20040;-75
2022/04/04 08:45:39;;;;;;;5.65;3.45;;;;;;;;;;6315342;28;20058;-75
2022/04/04 08:48:42;;;;;;;6.03;3.42;;;;;;;;;;6313638;28;20117;-74
2022/04/04 08:51:48;;;;;;;5.55;3.28;;;;;;;;;;6316085;28;20044;-74
2022/04/04 08:54:51;;;;;;;4.63;3.20;;;;;;;;;;6315477;28;20036;-75
2022/04/04 08:57:56;;;;;;;5.07;3.08;;;;;;;;;;6314630;28;20545;-73
2022/04/04 09:00:59;;;;;;;5.68;3.53;;;;;;;;;;6313460;28;20044;-74
2022/04/04 09:04:16;;;;;;;6.65;3.88;;;;;;;;;;6316235;28;20044;-75
2022/04/04 09:07:22;;;;;;;7.72;4.07;;;;;;;;;;6315512;28;20058;-74
2022/04/04 09:10:30;;;;;;;6.57;4.35;;;;;;;;;;6311132;28;20341;-75
2022/04/04 09:13:34;;;;;;;7.32;4.45;;;;;;;;;;6314299;28;20051;-75
2022/04/04 09:16:37;;;;;;;6.55;4.28;;;;;;;;;;6314759;28;20044;-74
2022/04/04 09:19:41;;;;;;;5.47;4.25;;;;;;;;;;6313657;28;20055;-74
2022/04/04 09:22:52;;;;;;;13.00;4.63;;;;;;;;;;6313802;28;20507;-74
2022/04/04 09:25:57;;;;;;;10.20;4.88;;;;;;;;;;6314854;28;20044;-74
2022/04/04 09:29:01;;;;;;;6.63;4.57;;;;;;;;;;6317067;28;20044;-74
2022/04/04 09:32:08;;;;;;;6.35;4.82;;;;;;;;;;6314942;28;20051;-74
2022/04/04 09:35:13;;;;;;;7.88;4.95;;;;;;;;;;6315287;28;20078;-75
2022/04/04 09:38:17;;;;;;;8.75;5.10;;;;;;;;;;6315678;28;20047;-75
2022/04/04 09:41:20;;;;;;;7.63;5.13;;;;;;;;;;6316277;28;20048;-75
2022/04/04 09:44:25;;;;;;;7.30;4.68;;;;;;;;;;6319422;28;20479;-75
2022/04/04 09:47:49;;;;;;;9.52;5.40;;;;;;;;;;6321310;28;20125;-76
2022/04/04 09:50:52;;;;;;;7.47;4.43;;;;;;;;;;6321344;28;20040;-76
2022/04/04 09:54:03;;;;;;;8.48;4.20;;;;;;;;;;6318668;28;20165;-76
2022/04/04 09:57:10;;;;;;;8.27;4.25;;;;;;;;;;6319054;28;20044;-75
2022/04/04 10:00:18;;;;;;;6.22;4.30;;;;;;;;;;6319884;28;20052;-74
2022/04/04 10:03:21;;;;;;;5.97;4.20;;;;;;;;;;6319214;28;20055;-75
2022/04/04 10:06:29;;;;;;;9.10;4.30;;;;;;;;;;6315838;28;20047;-76
2022/04/04 10:09:36;;;;;;;9.65;5.25;;;;;;;;;;6319454;28;20044;-74
2022/04/04 10:12:39;;;;;;;7.80;5.10;;;;;;;;;;6320583;28;20051;-75
2022/04/04 10:15:43;;;;;;;9.85;5.60;;;;;;;;;;6317825;28;20047;-74
2022/04/04 10:18:46;;;;;;;8.77;5.47;;;;;;;;;;6318590;28;20044;-75
2022/04/04 10:21:49;;;;;;;9.43;5.38;;;;;;;;;;6317779;28;20430;-75
2022/04/04 10:24:54;;;;;;;9.98;5.95;;;;;;;;;;6319993;28;20162;-75
2022/04/04 10:27:59;;;;;;;8.20;5.68;;;;;;;;;;6317755;28;20040;-75
2022/04/04 10:31:11;;;;;;;11.40;5.60;;;;;;;;;;6319703;28;20508;-75
2022/04/04 10:34:17;;;;;;;12.02;5.28;;;;;;;;;;6319145;28;20044;-72
2022/04/04 10:37:21;;;;;;;8.68;5.47;;;;;;;;;;6319647;28;20050;-74
2022/04/04 10:40:27;;;;;;;7.85;5.07;;;;;;;;;;6317015;28;20048;-74
2022/04/04 10:43:33;;;;;;;7.43;5.55;;;;;;;;;;6316362;28;20140;-74
2022/04/04 10:46:36;;;;;;;9.43;5.47;;;;;;;;;;6317876;28;20055;-74
2022/04/04 10:49:44;;;;;;;11.07;7.10;;;;;;;;;;6317993;28;20123;-75
2022/04/04 10:52:47;;;;;;;9.35;5.63;;;;;;;;;;6318796;28;20055;-76
2022/04/04 10:55:55;;;;;;;8.23;5.35;;;;;;;;;;6319628;28;20398;-75
2022/04/04 10:59:13;;;;;;;8.15;4.93;;;;;;;;;;6317148;28;20044;-75
2022/04/04 11:02:18;;;;;;;8.55;4.60;;;;;;;;;;6318313;28;20059;-75
2022/04/04 11:09:01;;;;;;;7.90;4.22;;;;;;;;;;6318330;28;20288;-75
2022/04/04 11:12:12;;;;;;;9.25;4.85;;;;;;;;;;6318682;28;20040;-75
2022/04/04 11:15:15;;;;;;;5.53;4.38;;;;;;;;;;6317750;28;20455;-75
2022/04/04 11:18:18;;;;;;;9.25;4.60;;;;;;;;;;6319261;28;20047;-75
2022/04/04 11:21:40;;;;;;;8.18;4.70;;;;;;;;;;6319118;28;20126;-75
2022/04/04 11:24:43;;;;;;;8.27;4.82;;;;;;;;;;6317428;28;20040;-75
2022/04/04 11:27:48;;;;;;;7.43;5.22;;;;;;;;;;6318620;28;20036;-75
2022/04/04 11:31:03;;;;;;;5.68;4.25;;;;;;;;;;6317850;28;20048;-75
2022/04/04 11:34:13;;;;;;;6.32;4.35;;;;;;;;;;6318862;28;20395;-74
2022/04/04 11:37:18;;;;;;;7.80;4.40;;;;;;;;;;6316863;28;20052;-75
2022/04/04 11:40:23;;;;;;;9.73;5.05;;;;;;;;;;6318621;28;20040;-75
2022/04/04 11:43:32;;;;;;;8.23;4.82;;;;;;;;;;6317493;28;20051;-76
2022/04/04 11:46:35;;;;;;;6.70;4.40;;;;;;;;;;6316258;28;20071;-74
2022/04/04 11:49:39;;;;;;;6.32;4.45;;;;;;;;;;6316157;28;20116;-74
2022/04/04 11:52:46;;;;;;;5.55;4.40;;;;;;;;;;6318455;28;20501;-74
2022/04/04 11:55:50;;;;;;;7.13;4.72;;;;;;;;;;6318488;28;20505;-75
2022/04/04 11:58:55;;;;;;;9.32;5.15;;;;;;;;;;6315096;28;20051;-74
2022/04/04 12:01:58;;;;;;;7.60;5.15;;;;;;;;;;6317335;28;20048;-73
2022/04/04 12:05:04;;;;;;;6.95;4.95;;;;;;;;;;6314993;28;20044;-74
2022/04/04 12:08:08;;;;;;;6.57;5.10;;;;;;;;;;6314329;28;20051;-75
2022/04/04 12:11:10;;;;;;;6.40;4.88;;;;;;;;;;6316453;28;20044;-75
2022/04/04 12:14:17;;;;;;;7.20;4.95;;;;;;;;;;6315971;28;20044;-72
2022/04/04 12:17:23;;;;;;;5.53;4.53;;;;;;;;;;6315752;28;20048;-75
2022/04/04 12:20:32;;;;;;;7.88;4.60;;;;;;;;;;6315571;28;20375;-76
2022/04/04 12:27:07;;;;;;;6.50;4.30;;;;;;;;;;6316671;28;20047;-75
2022/04/04 12:30:11;;;;;;;9.32;5.07;;;;;;;;;;6316200;28;20048;-73
2022/04/04 12:33:15;;;;;;;6.40;4.90;;;;;;;;;;6313935;28;20036;-75
2022/04/04 12:36:25;;;;;;;7.38;5.03;;;;;;;;;;6316294;28;20044;-75
2022/04/04 12:39:29;;;;;;;7.40;5.60;;;;;;;;;;6317684;28;20052;-74
2022/04/04 12:42:32;;;;;;;6.20;5.03;;;;;;;;;;6314190;28;20173;-75
2022/04/04 12:45:45;;;;;;;9.90;5.57;;;;;;;;;;6316268;28;20051;-73
2022/04/04 12:48:48;;;;;;;6.78;5.63;;;;;;;;;;6315082;28;20088;-75
2022/04/04 12:51:51;;;;;;;13.50;6.15;;;;;;;;;;6315684;28;20044;-73
2022/04/04 12:55:10;;;;;;;7.97;5.97;;;;;;;;;;6315419;28;20072;-74
2022/04/04 12:58:18;;;;;;;8.60;5.40;;;;;;;;;;6317404;28;20082;-73
2022/04/04 13:01:23;;;;;;;7.10;5.40;;;;;;;;;;6315990;28;20616;-73
2022/04/04 13:04:29;;;;;;;7.85;5.82;;;;;;;;;;6313277;28;20407;-74
2022/04/04 13:07:33;;;;;;;8.20;5.40;;;;;;;;;;6316112;28;20044;-75
2022/04/04 13:10:36;;;;;;;8.25;5.88;;;;;;;;;;6316600;28;20398;-76
2022/04/04 13:13:57;;;;;;;9.43;6.55;;;;;;;;;;6317144;28;20052;-74
2022/04/04 13:17:04;;;;;;;8.00;5.53;;;;;;;;;;6315244;28;20069;-74
2022/04/04 13:20:10;;;;;;;7.15;5.38;;;;;;;;;;6322370;28;20131;-73
2022/04/04 13:23:13;;;;;;;48.90;29.10;;;;;;;;;;6322298;28;20475;-74
2022/04/04 13:26:18;;;;;;;14.45;9.82;;;;;;;;;;6319964;28;20177;-74
2022/04/04 13:29:21;;;;;;;7.68;5.72;;;;;;;;;;6320491;28;20047;-73
2022/04/04 13:32:25;;;;;;;12.25;6.18;;;;;;;;;;6321752;28;20131;-75
2022/04/04 13:35:28;;;;;;;9.93;5.70;;;;;;;;;;6320185;28;20040;-74
2022/04/04 13:38:31;;;;;;;7.75;5.22;;;;;;;;;;6318186;28;20047;-75
2022/04/04 13:41:34;;;;;;;8.68;5.53;;;;;;;;;;6321353;28;20052;-74
2022/04/04 13:44:37;;;;;;;6.28;5.03;;;;;;;;;;6321692;28;20040;-74
2022/04/04 13:47:42;;;;;;;6.35;5.28;;;;;;;;;;6318367;28;20494;-75
2022/04/04 13:50:45;;;;;;;9.38;5.35;;;;;;;;;;6319200;28;20127;-75
2022/04/04 13:53:48;;;;;;;9.55;5.47;;;;;;;;;;6320037;28;20048;-73
2022/04/04 13:56:51;;;;;;;8.20;5.95;;;;;;;;;;6320982;28;20319;-76
2022/04/04 13:59:54;;;;;;;8.98;5.32;;;;;;;;;;6319236;28;20051;-75
2022/04/04 14:02:58;;;;;;;8.27;5.40;;;;;;;;;;6321095;28;20498;-74
2022/04/04 14:06:01;;;;;;;8.80;4.97;;;;;;;;;;6319271;28;20040;-75
2022/04/04 14:09:05;;;;;;;8.27;5.57;;;;;;;;;;6316759;28;20058;-75
2022/04/04 14:12:09;;;;;;;8.70;5.40;;;;;;;;;;6319680;28;20398;-75
2022/04/04 14:15:12;;;;;;;10.57;5.82;;;;;;;;;;6320515;28;20044;-75
2022/04/04 14:18:18;;;;;;;7.18;5.32;;;;;;;;;;6319285;28;20071;-74
2022/04/04 14:21:22;;;;;;;8.50;5.68;;;;;;;;;;6316311;28;20048;-74
2022/04/04 14:24:25;;;;;;;7.93;5.75;;;;;;;;;;6318390;28;20058;-76
2022/04/04 14:27:28;;;;;;;8.65;6.00;;;;;;;;;;6318639;28;20055;-75
2022/04/04 14:30:31;;;;;;;8.38;5.88;;;;;;;;;;6315372;28;20044;-75
2022/04/04 14:33:39;;;;;;;10.15;6.45;;;;;;;;;;6317696;28;20055;-75
2022/04/04 14:36:42;;;;;;;8.68;6.18;;;;;;;;;;6319071;28;20051;-74
2022/04/04 14:39:45;;;;;;;12.30;7.22;;;;;;;;;;6318219;28;20566;-76
2022/04/04 14:42:48;;;;;;;8.88;6.60;;;;;;;;;;6316286;28;20460;-75
2022/04/04 14:45:51;;;;;;;11.32;6.57;;;;;;;;;;6316953;28;20043;-75
2022/04/04 14:48:56;;;;;;;12.23;6.80;;;;;;;;;;6317733;28;20060;-75
2022/04/04 14:51:59;;;;;;;11.80;7.15;;;;;;;;;;6316510;28;20048;-75
2022/04/04 14:55:02;;;;;;;9.52;6.68;;;;;;;;;;6319950;28;20052;-75
2022/04/04 14:58:05;;;;;;;12.52;7.47;;;;;;;;;;6318400;28;20052;-74
2022/04/04 15:01:10;;;;;;;11.35;6.63;;;;;;;;;;6317672;28;20047;-73
2022/04/04 15:04:14;;;;;;;10.57;7.07;;;;;;;;;;6319146;28;20090;-73
2022/04/04 15:07:22;;;;;;;9.85;6.80;;;;;;;;;;6318022;28;20048;-75
2022/04/04 15:10:28;;;;;;;12.18;7.03;;;;;;;;;;6318790;28;20048;-75
2022/04/04 15:13:33;;;;;;;;;;;;;;;;;;6316340;28;20413;-75
2022/04/04 15:16:36;;;;;;;11.75;7.80;;;;;;;;;;6317801;28;20395;-74
2022/04/04 15:19:43;;;;;;;10.40;7.78;;;;;;;;;;6317766;28;20410;-76
2022/04/04 15:22:47;;;;;;;15.48;8.07;;;;;;;;;;6316949;28;20058;-75
2022/04/04 15:25:50;;;;;;;12.00;7.65;;;;;;;;;;6318413;28;20527;-77
2022/04/04 15:28:54;;;;;;;13.30;7.45;;;;;;;;;;6317525;28;20177;-76
2022/04/04 15:31:57;;;;;;;11.98;6.95;;;;;;;;;;6318209;28;20051;-74
2022/04/04 15:35:01;;;;;;;10.32;7.47;;;;;;;;;;6317049;28;20465;-76
2022/04/04 15:38:05;;;;;;;14.90;9.27;;;;;;;;;;6317260;28;20706;-76
2022/04/04 15:41:08;;;;;;;10.85;7.53;;;;;;;;;;6314117;28;20048;-75
2022/04/04 15:44:12;;;;;;;12.85;7.22;;;;;;;;;;6315412;28;20048;-76
2022/04/04 15:47:15;;;;;;;10.82;7.20;;;;;;;;;;6315734;28;20051;-76
2022/04/04 15:50:19;;;;;;;9.43;6.40;;;;;;;;;;6316376;28;20058;-78
2022/04/04 15:53:22;;;;;;;10.65;6.40;;;;;;;;;;6313814;28;20040;-76
2022/04/04 15:56:26;;;;;;;11.82;7.38;;;;;;;;;;6316841;28;20089;-74
2022/04/04 15:59:31;;;;;;;;;;;;;;;;;;6318583;28;20075;-74
2022/04/04 16:02:34;;;;;;;10.27;6.18;;;;;;;;;;6315975;28;19920;-76
2022/04/04 16:05:38;;;;;;;10.75;6.43;;;;;;;;;;6313028;28;20131;-75
2022/04/04 16:08:45;;;;;;;8.93;6.03;;;;;;;;;;6314929;28;20048;-74
2022/04/04 16:11:50;;;;;;;10.57;6.80;;;;;;;;;;6317787;28;20047;-73
2022/04/04 16:14:56;;;;;;;9.20;6.57;;;;;;;;;;6314588;28;20097;-74
2022/04/04 16:18:16;;;;;;;11.45;6.65;;;;;;;;;;6314028;28;20051;-73
2022/04/04 16:21:22;;;;;;;12.95;6.60;;;;;;;;;;6314774;28;20431;-74
2022/04/04 16:24:24;;;;;;;13.30;6.05;;;;;;;;;;6316726;28;20612;-73
2022/04/04 16:27:28;;;;;;;12.85;6.50;;;;;;;;;;6313261;28;20051;-75
2022/04/04 16:30:31;;;;;;;9.40;6.30;;;;;;;;;;6317224;28;20048;-75
2022/04/04 16:33:34;;;;;;;10.70;6.13;;;;;;;;;;6317345;28;20071;-75
2022/04/04 16:36:40;;;;;;;9.10;6.28;;;;;;;;;;6315154;28;20048;-74
2022/04/04 16:39:45;;;;;;;11.93;6.57;;;;;;;;;;6315229;28;20048;-75
2022/04/04 16:42:48;;;;;;;9.68;6.15;;;;;;;;;;6316154;28;20383;-75
2022/04/04 16:45:51;;;;;;;9.38;6.35;;;;;;;;;;6317320;28;20062;-73
2022/04/04 16:48:56;;;;;;;14.48;6.22;;;;;;;;;;6315911;28;20063;-75
2022/04/04 16:52:01;;;;;;;10.13;6.85;;;;;;;;;;6320399;28;20085;-75
2022/04/04 16:55:04;;;;;;;10.63;7.28;;;;;;;;;;6324171;28;20052;-74
2022/04/04 16:58:07;;;;;;;11.68;7.13;;;;;;;;;;6324025;28;20048;-75
2022/04/04 17:01:12;;;;;;;10.87;6.87;;;;;;;;;;6326026;28;20134;-75
2022/04/04 17:04:19;;;;;;;11.65;7.40;;;;;;;;;;6324093;28;20655;-74
2022/04/04 17:07:24;;;;;;;13.32;8.07;;;;;;;;;;6324163;28;20040;-75
2022/04/04 17:10:29;;;;;;;10.43;7.20;;;;;;;;;;6321455;28;20050;-75
2022/04/04 17:13:31;;;;;;;13.27;7.95;;;;;;;;;;6325385;28;20079;-75
2022/04/04 17:16:34;;;;;;;14.20;7.07;;;;;;;;;;6325168;28;20051;-74
2022/04/04 17:19:37;;;;;;;12.93;7.60;;;;;;;;;;6323622;28;20051;-73
2022/04/04 17:22:44;;;;;;;10.53;7.10;;;;;;;;;;6325169;28;20055;-74
2022/04/04 17:25:47;;;;;;;14.45;7.97;;;;;;;;;;6325271;28;20058;-76
2022/04/04 17:28:52;;;;;;;;;;;;;;;;;;6323932;28;20048;-75
2022/04/04 17:31:55;;;;;;;11.60;7.15;;;;;;;;;;6322203;28;20498;-75
2022/04/04 17:34:58;;;;;;;12.05;7.53;;;;;;;;;;6325274;28;20382;-75
2022/04/04 17:38:02;;;;;;;12.63;7.38;;;;;;;;;;6323854;28;20073;-75
2022/04/04 17:41:08;;;;;;;11.65;7.45;;;;;;;;;;6323025;28;20048;-76
2022/04/04 17:44:13;;;;;;;13.88;7.43;;;;;;;;;;6323428;28;20494;-74
2022/04/04 17:47:18;;;;;;;12.50;7.50;;;;;;;;;;6324827;28;20510;-74
2022/04/04 17:50:22;;;;;;;11.55;7.32;;;;;;;;;;6322901;28;20048;-74
2022/04/04 17:53:30;;;;;;;13.15;7.60;;;;;;;;;;6322200;28;20040;-75
2022/04/04 17:56:33;;;;;;;13.60;7.75;;;;;;;;;;6324863;28;20051;-76
2022/04/04 17:59:39;;;;;;;14.05;8.48;;;;;;;;;;6324857;28;20480;-75
2022/04/04 18:02:44;;;;;;;16.23;8.37;;;;;;;;;;6322116;28;20044;-76
2022/04/04 18:05:48;;;;;;;12.43;8.65;;;;;;;;;;6319454;28;20288;-77
2022/04/04 18:08:52;;;;;;;12.52;7.88;;;;;;;;;;6319421;28;20464;-75
2022/04/04 18:12:04;;;;;;;15.98;8.70;;;;;;;;;;6319737;28;20110;-75
2022/04/04 18:15:07;;;;;;;12.95;8.18;;;;;;;;;;6318282;28;20134;-75
2022/04/04 18:18:13;;;;;;;15.50;8.15;;;;;;;;;;6321444;28;20044;-76
2022/04/04 18:21:16;;;;;;;15.05;8.20;;;;;;;;;;6320762;28;20051;-76
2022/04/04 18:24:22;;;;;;;12.35;7.95;;;;;;;;;;6318854;28;20048;-75
2022/04/04 18:27:28;;;;;;;12.77;8.25;;;;;;;;;;6318825;28;20051;-76
2022/04/04 18:30:32;;;;;;;14.25;8.70;;;;;;;;;;6320565;28;20036;-75